Relevés horaires Beauvechain (Belgique)


Relevés horaires à Beauvechain - Lundi 27 Mars 2017
Heure UTC1 Température [°C] Vent [km/h] Hum. [%] Pres.4 [hPa] Visi. [Km] Nébu. [octa] Préc.5 [mm] Cond.
2m. Res. Ros. Dir.2 Vit. Moy. Raf.3
23:00 11.7 11.7 -0.5 NNO 1.9 -- 1.9 43 1021.2(0.0/3h) 20 -- -- --
22:00 13.4 13.4 -0.2 NNO 1.9 -- 1.9 39 1021.2(0.3/3h) 20 -- -- --
21:00 11.1 11.1 1.5 NNO 0.0 3.7 13.0 52 1021.3(0.7/3h) 25 0/8 -- --
20:00 14.1 14.1 -- NNO 1.9 -- 1.9 -- 1021(0.8/3h) 25 0/8 -- --
19:00 14.6 14.6 0.6 NNO 1.9 -- 3.7 38 1020.7(0.6/3h) 25 0/8 -- --
18:00 16.5 16.5 -1.5 NNO 1.9 -- 13.0 29 1020.3(0.0/3h) 25 0/8 -- --
17:00 17.6 17.6 -2.0 SSE 3.7 -- 7.4 26 1020(-1.0/3h) 25 0/8 -- --
16:00 17.8 17.8 -2.8 SSE 3.7 -- 9.3 24 1020.1(-1.5/3h) 25 0/8 -- --
15:00 17.7 17.7 -2.9 SE 5.6 7.4 13.0 24 1020.3(-1.8/3h) 15 1/8 -- --
14:00 17.0 17.0 -3.3 ESE 5.6 -- 13.0 25 1021.1(-1.7/3h) 15 1/8 -- --
13:00 16.3 16.3 -1.8 E 7.4 -- 13.0 29 1021.7(-1.3/3h) 15 1/8 -- --
12:00 14.7 14.7 -0.7 E 5.6 -- 14.8 35 1022.5(-0.7/3h) 15 1/8 -- --
11:00 14.8 14.8 -1.9 ESE 5.6 -- 14.8 32 1023(-0.3/3h) 15 1/8 -- --
10:00 13.9 13.4 0.1 SE 9.3 -- 13.0 39 1023.1(-0.1/3h) 15 1/8 -- --
09:00 11.3 11.1 1.3 E 5.6 5.6 7.4 50 1023.3(0.1/3h) 15 1/8 -- --
08:00 9.1 9.1 2.1 ESE 3.7 -- 5.6 61 1023.6(0.6/3h) 13 2/8 -- --
07:00 7.1 7.1 1.4 E 3.7 -- 5.6 67 1023.6(0.6/3h) 13 2/8 -- --
05:00 6.9 6.9 0.7 NNO 3.7 -- 7.4 65 1023.1(-0.1/3h) 13 0/8 -- --
04:00 6.0 6.0 1.9 NNO 1.9 -- 5.6 75 1023(-0.3/3h) 12 -- -- --
03:00 6.4 6.4 2.4 NNO 1.9 3.7 5.6 76 1023(-0.6/3h) 12 -- -- --
02:00 6.2 6.2 2.6 E 3.7 -- 5.6 78 1023.2(-0.4/3h) 11 -- -- --
01:00 7.9 7.9 2.6 ESE 3.7 -- 3.7 69 1023.3(-0.3/3h) 14 -- -- --
00:00 7.8 7.8 2.5 NNO 3.7 -- 11.1 69 1023.7(-0.2/3h) 17 -- -- --

1 Coordinated Universal Time. Actuellement il est 11:00 locale et 10:00 UTC.

2 Le vent souffle depuis la direction indiquée vers la direction oposée.

3 Les rafales max. sont disponible 40 min après l'heure du relevé.

4 Pour les stations d'altitude (plus de 600m) le géopotentiel du niveau le plus proche de la pression obligatoire est indiqué.

5 Les stations disposant d'un diffuseur peuvent indiquer "trace". Cela signifie que des précipitations ont touchés le sol mais que la quantité est inférieure à 0.1 mm.

Récapitulatif de la journée
Température [°C] Vent [km/h] Ensoleillement4 [h] Precipitations totale5 [mm] Pression [Hpa]
Min1 Max.2 Moy.3 Max. Min Max.
-- 18.2 5.1 14.8 0 h 0 min 0 1020.0 1023.7

1 Température minimale relevée entre 18:00 UTC la veille et 18:00 UTC le jour donné.

2 Température maximale relevée entre 06:00 UTC le jour donné et 06:00 UTC le lendemain.

3 Vent moyen de la journée basé sur les relevés horaires.

4 Ensoleillement en heures relevé entre 06:00 UTC la veille et 06:00 UTC le jour donné.

5 Précipitations totales tombées entre 06:00 UTC la jour donné et 06:00 UTC le lendemain.

Graphiques horaires